NVA weather

Benito Salas Airport
Neiva, Huila Department, Colombia

Public forecast

Using degrees Celsius for public forecast. Weather courtesy of forecast.io.

Current aviation weather report (METAR) for Benito Salas Airport

Report is more than 2 hours old.

Retrieved 2020/06/06 23:00 UTC (4 hours ago):

SKNV 062300Z 17004KT 130V190 9999 FEW027 BKN130 27/21 A2994

Closest aviation forecast (TAF) to Benito Salas Airport

Closest forecast is Alfonso Bonilla Aragon International Airport, 74.3 nm (137.6 km) WNW. Retrieved 2020-06-07 00:30 UTC (2 hours ago):

TAF SKCL 062230Z 0700/0724 VRB03KT 9999 FEW025 BKN100 TEMPO 0710/0714 4000 BR SCT015 BECMG 0716/0617 9999 NSW BECMG 0719/0720 34010KT PROB40 TEMPO 0720/0723 5000 TSRA SCT017CB TX30/0719Z TN19/0710Z